sensor_id;sensor_type;location;lat;lon;timestamp;P1;durP1;ratioP1;P2;durP2;ratioP2
38940;SDS011;43236;47.208;7.518;2022-09-09T00:00:27;5.68;;;1.42;;
38940;SDS011;43236;47.208;7.518;2022-09-09T00:03:19;6.35;;;1.40;;
38940;SDS011;43236;47.208;7.518;2022-09-09T00:06:13;5.78;;;1.65;;
38940;SDS011;43236;47.208;7.518;2022-09-09T00:09:10;4.55;;;1.42;;
38940;SDS011;43236;47.208;7.518;2022-09-09T00:12:00;5.18;;;1.55;;
38940;SDS011;43236;47.208;7.518;2022-09-09T00:14:51;5.45;;;1.88;;
38940;SDS011;43236;47.208;7.518;2022-09-09T00:17:42;5.70;;;1.55;;
38940;SDS011;43236;47.208;7.518;2022-09-09T00:20:35;3.47;;;1.35;;
38940;SDS011;43236;47.208;7.518;2022-09-09T00:23:29;4.80;;;1.40;;
38940;SDS011;43236;47.208;7.518;2022-09-09T00:26:20;8.23;;;1.40;;
38940;SDS011;43236;47.208;7.518;2022-09-09T00:29:18;7.22;;;1.60;;
38940;SDS011;43236;47.208;7.518;2022-09-09T00:32:11;6.40;;;1.65;;
38940;SDS011;43236;47.208;7.518;2022-09-09T00:35:02;5.22;;;1.73;;
38940;SDS011;43236;47.208;7.518;2022-09-09T00:38:00;6.47;;;1.48;;
38940;SDS011;43236;47.208;7.518;2022-09-09T00:40:52;5.60;;;1.67;;
38940;SDS011;43236;47.208;7.518;2022-09-09T00:43:43;11.02;;;2.10;;
38940;SDS011;43236;47.208;7.518;2022-09-09T00:46:42;6.50;;;1.70;;
38940;SDS011;43236;47.208;7.518;2022-09-09T00:49:43;4.75;;;1.50;;
38940;SDS011;43236;47.208;7.518;2022-09-09T00:52:43;4.82;;;1.80;;
38940;SDS011;43236;47.208;7.518;2022-09-09T00:55:39;6.07;;;1.80;;
38940;SDS011;43236;47.208;7.518;2022-09-09T00:58:33;9.68;;;2.30;;
38940;SDS011;43236;47.208;7.518;2022-09-09T01:01:21;5.07;;;2.10;;
38940;SDS011;43236;47.208;7.518;2022-09-09T01:04:09;6.50;;;2.33;;
38940;SDS011;43236;47.208;7.518;2022-09-09T01:07:03;4.65;;;2.10;;
38940;SDS011;43236;47.208;7.518;2022-09-09T01:09:58;4.07;;;1.77;;
38940;SDS011;43236;47.208;7.518;2022-09-09T01:12:47;10.88;;;2.10;;
38940;SDS011;43236;47.208;7.518;2022-09-09T01:15:38;4.63;;;1.88;;
38940;SDS011;43236;47.208;7.518;2022-09-09T01:18:30;3.30;;;1.70;;
38940;SDS011;43236;47.208;7.518;2022-09-09T01:21:22;5.78;;;2.15;;
38940;SDS011;43236;47.208;7.518;2022-09-09T01:24:19;3.72;;;1.83;;
38940;SDS011;43236;47.208;7.518;2022-09-09T01:30:00;6.22;;;1.88;;
38940;SDS011;43236;47.208;7.518;2022-09-09T01:32:48;6.20;;;2.00;;
38940;SDS011;43236;47.208;7.518;2022-09-09T01:35:39;10.10;;;2.17;;
38940;SDS011;43236;47.208;7.518;2022-09-09T01:38:32;4.75;;;1.73;;
38940;SDS011;43236;47.208;7.518;2022-09-09T01:41:20;7.60;;;2.00;;
38940;SDS011;43236;47.208;7.518;2022-09-09T01:44:08;7.10;;;1.70;;
38940;SDS011;43236;47.208;7.518;2022-09-09T01:46:57;6.38;;;1.60;;
38940;SDS011;43236;47.208;7.518;2022-09-09T01:49:44;4.75;;;1.48;;
38940;SDS011;43236;47.208;7.518;2022-09-09T01:52:31;5.60;;;1.80;;
38940;SDS011;43236;47.208;7.518;2022-09-09T01:55:23;3.95;;;1.77;;
38940;SDS011;43236;47.208;7.518;2022-09-09T01:58:17;5.50;;;2.22;;
38940;SDS011;43236;47.208;7.518;2022-09-09T02:01:17;8.43;;;2.30;;
38940;SDS011;43236;47.208;7.518;2022-09-09T02:04:16;4.75;;;1.60;;
38940;SDS011;43236;47.208;7.518;2022-09-09T02:07:29;8.25;;;1.83;;
38940;SDS011;43236;47.208;7.518;2022-09-09T02:10:24;3.72;;;1.92;;
38940;SDS011;43236;47.208;7.518;2022-09-09T02:13:17;10.57;;;2.30;;
38940;SDS011;43236;47.208;7.518;2022-09-09T02:16:08;9.52;;;1.60;;
38940;SDS011;43236;47.208;7.518;2022-09-09T02:19:00;3.38;;;1.80;;
38940;SDS011;43236;47.208;7.518;2022-09-09T02:21:50;5.90;;;1.88;;
38940;SDS011;43236;47.208;7.518;2022-09-09T02:24:39;4.00;;;1.80;;
38940;SDS011;43236;47.208;7.518;2022-09-09T02:27:27;4.05;;;2.00;;
38940;SDS011;43236;47.208;7.518;2022-09-09T02:30:14;6.30;;;1.90;;
38940;SDS011;43236;47.208;7.518;2022-09-09T02:33:02;4.05;;;1.40;;
38940;SDS011;43236;47.208;7.518;2022-09-09T02:35:53;3.65;;;1.30;;
38940;SDS011;43236;47.208;7.518;2022-09-09T02:38:47;4.70;;;1.27;;
38940;SDS011;43236;47.208;7.518;2022-09-09T02:41:36;6.35;;;1.50;;
38940;SDS011;43236;47.208;7.518;2022-09-09T02:44:25;5.82;;;1.45;;
38940;SDS011;43236;47.208;7.518;2022-09-09T02:47:21;6.30;;;1.50;;
38940;SDS011;43236;47.208;7.518;2022-09-09T02:50:16;10.13;;;1.63;;
38940;SDS011;43236;47.208;7.518;2022-09-09T02:53:11;9.80;;;1.60;;
38940;SDS011;43236;47.208;7.518;2022-09-09T02:56:04;6.20;;;1.50;;
38940;SDS011;43236;47.208;7.518;2022-09-09T02:58:55;3.85;;;1.40;;
38940;SDS011;43236;47.208;7.518;2022-09-09T03:01:43;6.65;;;1.60;;
38940;SDS011;43236;47.208;7.518;2022-09-09T03:04:30;5.60;;;1.40;;
38940;SDS011;43236;47.208;7.518;2022-09-09T03:07:17;5.47;;;1.15;;
38940;SDS011;43236;47.208;7.518;2022-09-09T03:10:06;5.63;;;1.40;;
38940;SDS011;43236;47.208;7.518;2022-09-09T03:12:55;4.95;;;1.40;;
38940;SDS011;43236;47.208;7.518;2022-09-09T03:15:42;4.65;;;1.25;;
38940;SDS011;43236;47.208;7.518;2022-09-09T03:18:30;3.58;;;1.58;;
38940;SDS011;43236;47.208;7.518;2022-09-09T03:21:17;5.28;;;1.40;;
38940;SDS011;43236;47.208;7.518;2022-09-09T03:24:04;7.38;;;2.13;;
38940;SDS011;43236;47.208;7.518;2022-09-09T03:26:53;5.70;;;1.83;;
38940;SDS011;43236;47.208;7.518;2022-09-09T03:29:41;4.10;;;1.45;;
38940;SDS011;43236;47.208;7.518;2022-09-09T03:32:28;5.20;;;1.80;;
38940;SDS011;43236;47.208;7.518;2022-09-09T03:35:16;7.70;;;1.70;;
38940;SDS011;43236;47.208;7.518;2022-09-09T03:38:03;4.00;;;1.58;;
38940;SDS011;43236;47.208;7.518;2022-09-09T03:40:51;6.00;;;1.60;;
38940;SDS011;43236;47.208;7.518;2022-09-09T03:43:42;5.22;;;1.60;;
38940;SDS011;43236;47.208;7.518;2022-09-09T03:46:29;4.93;;;2.00;;
38940;SDS011;43236;47.208;7.518;2022-09-09T03:49:16;2.72;;;1.60;;
38940;SDS011;43236;47.208;7.518;2022-09-09T03:52:05;6.18;;;1.80;;
38940;SDS011;43236;47.208;7.518;2022-09-09T03:54:52;5.80;;;1.55;;
38940;SDS011;43236;47.208;7.518;2022-09-09T03:57:40;3.53;;;1.80;;
38940;SDS011;43236;47.208;7.518;2022-09-09T04:00:28;6.53;;;1.92;;
38940;SDS011;43236;47.208;7.518;2022-09-09T04:03:16;4.85;;;1.63;;
38940;SDS011;43236;47.208;7.518;2022-09-09T04:06:03;3.90;;;1.60;;
38940;SDS011;43236;47.208;7.518;2022-09-09T04:08:52;2.88;;;1.45;;
38940;SDS011;43236;47.208;7.518;2022-09-09T04:11:40;4.35;;;1.63;;
38940;SDS011;43236;47.208;7.518;2022-09-09T04:14:27;8.38;;;1.35;;
38940;SDS011;43236;47.208;7.518;2022-09-09T04:17:15;3.50;;;1.23;;
38940;SDS011;43236;47.208;7.518;2022-09-09T04:20:03;7.30;;;2.38;;
38940;SDS011;43236;47.208;7.518;2022-09-09T04:22:52;3.22;;;1.45;;
38940;SDS011;43236;47.208;7.518;2022-09-09T04:25:43;5.35;;;1.77;;
38940;SDS011;43236;47.208;7.518;2022-09-09T04:28:32;5.68;;;1.38;;
38940;SDS011;43236;47.208;7.518;2022-09-09T04:31:22;4.15;;;1.40;;
38940;SDS011;43236;47.208;7.518;2022-09-09T04:34:10;2.90;;;1.50;;
38940;SDS011;43236;47.208;7.518;2022-09-09T04:36:58;5.78;;;1.42;;
38940;SDS011;43236;47.208;7.518;2022-09-09T04:39:45;10.68;;;2.10;;
38940;SDS011;43236;47.208;7.518;2022-09-09T04:42:34;5.15;;;1.60;;
38940;SDS011;43236;47.208;7.518;2022-09-09T04:45:21;9.00;;;1.92;;
38940;SDS011;43236;47.208;7.518;2022-09-09T04:48:08;4.72;;;1.90;;
38940;SDS011;43236;47.208;7.518;2022-09-09T04:50:57;4.70;;;1.48;;
38940;SDS011;43236;47.208;7.518;2022-09-09T04:53:46;8.55;;;1.80;;
38940;SDS011;43236;47.208;7.518;2022-09-09T04:56:35;6.57;;;2.25;;
38940;SDS011;43236;47.208;7.518;2022-09-09T04:59:22;3.88;;;2.10;;
38940;SDS011;43236;47.208;7.518;2022-09-09T05:02:09;4.65;;;2.28;;
38940;SDS011;43236;47.208;7.518;2022-09-09T05:04:56;4.72;;;1.90;;
38940;SDS011;43236;47.208;7.518;2022-09-09T05:07:44;6.93;;;2.03;;
38940;SDS011;43236;47.208;7.518;2022-09-09T05:10:32;7.78;;;2.20;;
38940;SDS011;43236;47.208;7.518;2022-09-09T05:13:21;4.35;;;2.30;;
38940;SDS011;43236;47.208;7.518;2022-09-09T05:16:08;5.88;;;2.03;;
38940;SDS011;43236;47.208;7.518;2022-09-09T05:18:56;6.75;;;2.50;;
38940;SDS011;43236;47.208;7.518;2022-09-09T05:21:44;5.40;;;1.95;;
38940;SDS011;43236;47.208;7.518;2022-09-09T05:24:32;7.30;;;2.25;;
38940;SDS011;43236;47.208;7.518;2022-09-09T05:27:19;4.18;;;2.20;;
38940;SDS011;43236;47.208;7.518;2022-09-09T05:30:07;4.45;;;2.15;;
38940;SDS011;43236;47.208;7.518;2022-09-09T05:32:55;8.40;;;2.30;;
38940;SDS011;43236;47.208;7.518;2022-09-09T05:35:43;4.63;;;2.40;;
38940;SDS011;43236;47.208;7.518;2022-09-09T05:38:30;5.80;;;2.42;;
38940;SDS011;43236;47.208;7.518;2022-09-09T05:41:20;8.25;;;2.58;;
38940;SDS011;43236;47.208;7.518;2022-09-09T05:44:08;5.63;;;2.40;;
38940;SDS011;43236;47.208;7.518;2022-09-09T05:46:55;5.32;;;2.78;;
38940;SDS011;43236;47.208;7.518;2022-09-09T05:49:43;8.40;;;3.58;;
38940;SDS011;43236;47.208;7.518;2022-09-09T05:52:30;9.43;;;3.25;;
38940;SDS011;43236;47.208;7.518;2022-09-09T05:55:20;12.32;;;2.63;;
38940;SDS011;43236;47.208;7.518;2022-09-09T05:58:08;9.65;;;3.10;;
38940;SDS011;43236;47.208;7.518;2022-09-09T06:01:03;8.13;;;2.65;;
38940;SDS011;43236;47.208;7.518;2022-09-09T06:03:54;11.80;;;2.67;;
38940;SDS011;43236;47.208;7.518;2022-09-09T06:06:41;6.15;;;2.35;;
38940;SDS011;43236;47.208;7.518;2022-09-09T06:09:28;9.30;;;2.50;;
38940;SDS011;43236;47.208;7.518;2022-09-09T06:12:15;8.48;;;2.75;;
38940;SDS011;43236;47.208;7.518;2022-09-09T06:15:04;5.88;;;2.70;;
38940;SDS011;43236;47.208;7.518;2022-09-09T06:17:53;11.57;;;2.63;;
38940;SDS011;43236;47.208;7.518;2022-09-09T06:20:41;7.30;;;2.90;;
38940;SDS011;43236;47.208;7.518;2022-09-09T06:23:28;5.50;;;2.65;;
38940;SDS011;43236;47.208;7.518;2022-09-09T06:26:16;5.38;;;2.67;;
38940;SDS011;43236;47.208;7.518;2022-09-09T06:29:04;6.97;;;2.60;;
38940;SDS011;43236;47.208;7.518;2022-09-09T06:31:53;6.72;;;2.70;;
38940;SDS011;43236;47.208;7.518;2022-09-09T06:34:41;12.40;;;2.80;;
38940;SDS011;43236;47.208;7.518;2022-09-09T06:37:30;4.22;;;2.10;;
38940;SDS011;43236;47.208;7.518;2022-09-09T06:40:18;7.55;;;2.47;;
38940;SDS011;43236;47.208;7.518;2022-09-09T06:43:05;7.82;;;2.15;;
38940;SDS011;43236;47.208;7.518;2022-09-09T06:45:53;6.22;;;2.30;;
38940;SDS011;43236;47.208;7.518;2022-09-09T06:48:42;5.95;;;2.70;;
38940;SDS011;43236;47.208;7.518;2022-09-09T06:51:30;4.82;;;2.30;;
38940;SDS011;43236;47.208;7.518;2022-09-09T06:54:20;6.82;;;3.00;;
38940;SDS011;43236;47.208;7.518;2022-09-09T06:57:08;5.93;;;2.50;;
38940;SDS011;43236;47.208;7.518;2022-09-09T06:59:55;9.85;;;2.60;;
38940;SDS011;43236;47.208;7.518;2022-09-09T07:02:42;12.35;;;2.70;;
38940;SDS011;43236;47.208;7.518;2022-09-09T07:05:31;10.18;;;2.50;;
38940;SDS011;43236;47.208;7.518;2022-09-09T07:08:19;5.10;;;2.35;;
38940;SDS011;43236;47.208;7.518;2022-09-09T07:11:07;7.55;;;2.35;;
38940;SDS011;43236;47.208;7.518;2022-09-09T07:13:56;7.72;;;2.47;;
38940;SDS011;43236;47.208;7.518;2022-09-09T07:16:44;6.95;;;2.53;;
38940;SDS011;43236;47.208;7.518;2022-09-09T07:19:32;6.95;;;2.78;;
38940;SDS011;43236;47.208;7.518;2022-09-09T07:22:21;6.80;;;2.28;;
38940;SDS011;43236;47.208;7.518;2022-09-09T07:25:08;7.07;;;2.17;;
38940;SDS011;43236;47.208;7.518;2022-09-09T07:27:55;3.85;;;1.60;;
38940;SDS011;43236;47.208;7.518;2022-09-09T07:30:42;7.90;;;1.52;;
38940;SDS011;43236;47.208;7.518;2022-09-09T07:33:29;7.22;;;1.83;;
38940;SDS011;43236;47.208;7.518;2022-09-09T07:36:19;10.38;;;2.33;;
38940;SDS011;43236;47.208;7.518;2022-09-09T07:39:10;2.78;;;1.45;;
38940;SDS011;43236;47.208;7.518;2022-09-09T07:41:59;4.13;;;1.60;;
38940;SDS011;43236;47.208;7.518;2022-09-09T07:44:46;6.97;;;1.52;;
38940;SDS011;43236;47.208;7.518;2022-09-09T07:47:32;2.40;;;1.25;;
38940;SDS011;43236;47.208;7.518;2022-09-09T07:50:20;6.72;;;1.50;;
38940;SDS011;43236;47.208;7.518;2022-09-09T07:53:08;2.97;;;1.65;;
38940;SDS011;43236;47.208;7.518;2022-09-09T07:55:56;3.28;;;1.25;;
38940;SDS011;43236;47.208;7.518;2022-09-09T07:58:49;4.13;;;1.77;;
38940;SDS011;43236;47.208;7.518;2022-09-09T08:01:38;4.68;;;1.45;;
38940;SDS011;43236;47.208;7.518;2022-09-09T08:04:27;4.03;;;1.30;;
38940;SDS011;43236;47.208;7.518;2022-09-09T08:07:14;4.93;;;1.20;;
38940;SDS011;43236;47.208;7.518;2022-09-09T08:10:02;4.68;;;1.00;;
38940;SDS011;43236;47.208;7.518;2022-09-09T08:12:51;4.55;;;1.05;;
38940;SDS011;43236;47.208;7.518;2022-09-09T08:15:38;5.55;;;1.15;;
38940;SDS011;43236;47.208;7.518;2022-09-09T08:18:26;3.88;;;0.98;;
38940;SDS011;43236;47.208;7.518;2022-09-09T08:21:14;1.85;;;0.90;;
38940;SDS011;43236;47.208;7.518;2022-09-09T08:24:04;2.50;;;0.88;;
38940;SDS011;43236;47.208;7.518;2022-09-09T08:26:51;3.08;;;0.90;;
38940;SDS011;43236;47.208;7.518;2022-09-09T08:29:40;3.65;;;1.00;;
38940;SDS011;43236;47.208;7.518;2022-09-09T08:32:27;2.67;;;0.80;;
38940;SDS011;43236;47.208;7.518;2022-09-09T08:35:14;1.92;;;0.90;;
38940;SDS011;43236;47.208;7.518;2022-09-09T08:38:02;5.32;;;1.10;;
38940;SDS011;43236;47.208;7.518;2022-09-09T08:40:49;2.85;;;0.80;;
38940;SDS011;43236;47.208;7.518;2022-09-09T08:43:46;4.22;;;0.90;;
38940;SDS011;43236;47.208;7.518;2022-09-09T08:46:38;5.47;;;0.70;;
38940;SDS011;43236;47.208;7.518;2022-09-09T08:49:37;2.15;;;0.88;;
38940;SDS011;43236;47.208;7.518;2022-09-09T08:52:36;5.97;;;0.90;;
38940;SDS011;43236;47.208;7.518;2022-09-09T08:55:27;3.00;;;0.70;;
38940;SDS011;43236;47.208;7.518;2022-09-09T08:58:22;2.95;;;0.75;;
38940;SDS011;43236;47.208;7.518;2022-09-09T09:01:17;3.67;;;0.95;;
38940;SDS011;43236;47.208;7.518;2022-09-09T09:04:26;3.25;;;0.70;;
38940;SDS011;43236;47.208;7.518;2022-09-09T09:07:33;3.67;;;0.70;;
38940;SDS011;43236;47.208;7.518;2022-09-09T09:10:33;4.82;;;1.00;;
38940;SDS011;43236;47.208;7.518;2022-09-09T09:13:30;3.90;;;0.88;;
38940;SDS011;43236;47.208;7.518;2022-09-09T09:16:26;4.63;;;0.95;;
38940;SDS011;43236;47.208;7.518;2022-09-09T09:19:17;3.03;;;0.63;;
38940;SDS011;43236;47.208;7.518;2022-09-09T09:22:14;2.03;;;0.70;;
38940;SDS011;43236;47.208;7.518;2022-09-09T09:25:08;2.50;;;0.43;;
38940;SDS011;43236;47.208;7.518;2022-09-09T09:28:01;3.72;;;0.60;;
38940;SDS011;43236;47.208;7.518;2022-09-09T09:30:52;2.08;;;0.52;;
38940;SDS011;43236;47.208;7.518;2022-09-09T09:33:46;3.03;;;0.70;;
38940;SDS011;43236;47.208;7.518;2022-09-09T09:36:37;1.58;;;0.50;;
38940;SDS011;43236;47.208;7.518;2022-09-09T09:39:29;3.53;;;0.77;;
38940;SDS011;43236;47.208;7.518;2022-09-09T09:42:21;2.03;;;0.55;;
38940;SDS011;43236;47.208;7.518;2022-09-09T09:45:14;6.35;;;0.70;;
38940;SDS011;43236;47.208;7.518;2022-09-09T09:48:08;3.97;;;0.60;;
38940;SDS011;43236;47.208;7.518;2022-09-09T09:50:57;3.15;;;0.68;;
38940;SDS011;43236;47.208;7.518;2022-09-09T09:53:45;3.75;;;0.80;;
38940;SDS011;43236;47.208;7.518;2022-09-09T09:56:36;5.10;;;0.57;;
38940;SDS011;43236;47.208;7.518;2022-09-09T09:59:23;4.72;;;0.50;;
38940;SDS011;43236;47.208;7.518;2022-09-09T10:02:21;3.08;;;0.75;;
38940;SDS011;43236;47.208;7.518;2022-09-09T10:05:13;3.72;;;0.52;;
38940;SDS011;43236;47.208;7.518;2022-09-09T10:08:02;3.05;;;0.75;;
38940;SDS011;43236;47.208;7.518;2022-09-09T10:10:59;2.22;;;0.50;;
38940;SDS011;43236;47.208;7.518;2022-09-09T10:17:05;3.17;;;0.70;;
38940;SDS011;43236;47.208;7.518;2022-09-09T10:20:11;2.80;;;0.60;;
38940;SDS011;43236;47.208;7.518;2022-09-09T10:23:11;5.38;;;1.17;;
38940;SDS011;43236;47.208;7.518;2022-09-09T10:26:12;3.05;;;0.40;;
38940;SDS011;43236;47.208;7.518;2022-09-09T10:32:35;2.83;;;0.43;;
38940;SDS011;43236;47.208;7.518;2022-09-09T10:38:16;2.83;;;0.50;;
38940;SDS011;43236;47.208;7.518;2022-09-09T10:41:11;1.80;;;0.38;;
38940;SDS011;43236;47.208;7.518;2022-09-09T10:44:11;1.90;;;0.50;;
38940;SDS011;43236;47.208;7.518;2022-09-09T10:47:14;3.90;;;0.60;;
38940;SDS011;43236;47.208;7.518;2022-09-09T10:50:28;2.75;;;0.50;;
38940;SDS011;43236;47.208;7.518;2022-09-09T10:53:32;3.67;;;0.60;;
38940;SDS011;43236;47.208;7.518;2022-09-09T10:56:23;1.92;;;0.50;;
38940;SDS011;43236;47.208;7.518;2022-09-09T10:59:12;3.03;;;0.50;;
38940;SDS011;43236;47.208;7.518;2022-09-09T11:02:03;2.58;;;0.40;;
38940;SDS011;43236;47.208;7.518;2022-09-09T11:05:01;3.67;;;0.30;;
38940;SDS011;43236;47.208;7.518;2022-09-09T11:07:52;2.60;;;0.40;;
38940;SDS011;43236;47.208;7.518;2022-09-09T11:10:44;4.40;;;0.50;;
38940;SDS011;43236;47.208;7.518;2022-09-09T11:13:39;2.00;;;0.50;;
38940;SDS011;43236;47.208;7.518;2022-09-09T11:16:32;4.70;;;0.50;;
38940;SDS011;43236;47.208;7.518;2022-09-09T11:19:25;1.73;;;0.30;;
38940;SDS011;43236;47.208;7.518;2022-09-09T11:22:20;3.42;;;0.50;;
38940;SDS011;43236;47.208;7.518;2022-09-09T11:25:15;1.63;;;0.40;;
38940;SDS011;43236;47.208;7.518;2022-09-09T11:28:11;5.35;;;0.55;;
38940;SDS011;43236;47.208;7.518;2022-09-09T11:31:13;3.33;;;0.90;;
38940;SDS011;43236;47.208;7.518;2022-09-09T11:34:17;9.82;;;0.65;;
38940;SDS011;43236;47.208;7.518;2022-09-09T11:37:19;1.38;;;0.40;;
38940;SDS011;43236;47.208;7.518;2022-09-09T11:40:23;0.93;;;0.30;;
38940;SDS011;43236;47.208;7.518;2022-09-09T11:43:12;3.10;;;0.50;;
38940;SDS011;43236;47.208;7.518;2022-09-09T11:46:03;3.83;;;0.55;;
38940;SDS011;43236;47.208;7.518;2022-09-09T11:48:57;0.98;;;0.30;;
38940;SDS011;43236;47.208;7.518;2022-09-09T11:51:45;4.47;;;0.52;;
38940;SDS011;43236;47.208;7.518;2022-09-09T11:54:34;2.13;;;0.47;;
38940;SDS011;43236;47.208;7.518;2022-09-09T11:57:34;2.97;;;0.30;;
38940;SDS011;43236;47.208;7.518;2022-09-09T12:00:32;1.88;;;0.60;;
38940;SDS011;43236;47.208;7.518;2022-09-09T12:03:31;3.38;;;0.40;;
38940;SDS011;43236;47.208;7.518;2022-09-09T12:06:24;3.38;;;0.40;;
38940;SDS011;43236;47.208;7.518;2022-09-09T12:09:18;11.20;;;0.40;;
38940;SDS011;43236;47.208;7.518;2022-09-09T12:12:27;2.70;;;0.47;;
38940;SDS011;43236;47.208;7.518;2022-09-09T12:15:17;1.83;;;0.40;;
38940;SDS011;43236;47.208;7.518;2022-09-09T12:18:07;1.65;;;0.38;;
38940;SDS011;43236;47.208;7.518;2022-09-09T12:21:10;2.72;;;0.50;;
38940;SDS011;43236;47.208;7.518;2022-09-09T12:24:08;1.42;;;0.40;;
38940;SDS011;43236;47.208;7.518;2022-09-09T12:26:58;1.98;;;0.35;;
38940;SDS011;43236;47.208;7.518;2022-09-09T12:29:53;3.03;;;0.40;;
38940;SDS011;43236;47.208;7.518;2022-09-09T12:32:47;0.63;;;0.30;;
38940;SDS011;43236;47.208;7.518;2022-09-09T12:35:45;2.08;;;0.30;;
38940;SDS011;43236;47.208;7.518;2022-09-09T12:38:39;2.33;;;0.23;;
38940;SDS011;43236;47.208;7.518;2022-09-09T12:41:27;1.95;;;0.60;;
38940;SDS011;43236;47.208;7.518;2022-09-09T12:44:14;2.63;;;0.50;;
38940;SDS011;43236;47.208;7.518;2022-09-09T12:47:03;5.40;;;0.50;;
38940;SDS011;43236;47.208;7.518;2022-09-09T12:49:50;4.70;;;0.47;;
38940;SDS011;43236;47.208;7.518;2022-09-09T12:52:38;3.92;;;0.40;;
38940;SDS011;43236;47.208;7.518;2022-09-09T12:55:27;3.60;;;0.60;;
38940;SDS011;43236;47.208;7.518;2022-09-09T12:58:18;4.53;;;0.60;;
38940;SDS011;43236;47.208;7.518;2022-09-09T13:01:17;5.28;;;0.60;;
38940;SDS011;43236;47.208;7.518;2022-09-09T13:04:17;4.95;;;0.30;;
38940;SDS011;43236;47.208;7.518;2022-09-09T13:07:07;3.10;;;0.45;;
38940;SDS011;43236;47.208;7.518;2022-09-09T13:09:56;2.65;;;0.60;;
38940;SDS011;43236;47.208;7.518;2022-09-09T13:12:44;3.78;;;0.70;;
38940;SDS011;43236;47.208;7.518;2022-09-09T13:15:31;7.10;;;0.40;;
38940;SDS011;43236;47.208;7.518;2022-09-09T13:18:20;4.72;;;0.65;;
38940;SDS011;43236;47.208;7.518;2022-09-09T13:21:10;7.07;;;0.65;;
38940;SDS011;43236;47.208;7.518;2022-09-09T13:23:58;2.33;;;0.32;;
38940;SDS011;43236;47.208;7.518;2022-09-09T13:26:53;2.10;;;0.47;;
38940;SDS011;43236;47.208;7.518;2022-09-09T13:29:50;5.47;;;0.70;;
38940;SDS011;43236;47.208;7.518;2022-09-09T13:32:40;4.57;;;0.73;;
38940;SDS011;43236;47.208;7.518;2022-09-09T13:35:27;3.17;;;0.50;;
38940;SDS011;43236;47.208;7.518;2022-09-09T13:38:16;3.13;;;0.40;;
38940;SDS011;43236;47.208;7.518;2022-09-09T13:41:04;5.53;;;0.40;;
38940;SDS011;43236;47.208;7.518;2022-09-09T13:43:52;3.08;;;0.50;;
38940;SDS011;43236;47.208;7.518;2022-09-09T13:46:40;2.45;;;0.40;;
38940;SDS011;43236;47.208;7.518;2022-09-09T13:49:28;3.88;;;0.60;;
38940;SDS011;43236;47.208;7.518;2022-09-09T13:52:18;1.98;;;0.40;;
38940;SDS011;43236;47.208;7.518;2022-09-09T13:55:09;1.48;;;0.35;;
38940;SDS011;43236;47.208;7.518;2022-09-09T13:57:56;1.98;;;0.38;;
38940;SDS011;43236;47.208;7.518;2022-09-09T14:00:45;2.75;;;0.60;;
38940;SDS011;43236;47.208;7.518;2022-09-09T14:03:32;4.13;;;0.40;;
38940;SDS011;43236;47.208;7.518;2022-09-09T14:06:22;2.25;;;0.30;;
38940;SDS011;43236;47.208;7.518;2022-09-09T14:09:10;1.05;;;0.30;;
38940;SDS011;43236;47.208;7.518;2022-09-09T14:12:00;3.35;;;0.50;;
38940;SDS011;43236;47.208;7.518;2022-09-09T14:14:47;5.65;;;0.55;;
38940;SDS011;43236;47.208;7.518;2022-09-09T14:17:35;3.95;;;0.40;;
38940;SDS011;43236;47.208;7.518;2022-09-09T14:20:22;6.25;;;0.55;;
38940;SDS011;43236;47.208;7.518;2022-09-09T14:23:10;5.20;;;0.60;;
38940;SDS011;43236;47.208;7.518;2022-09-09T14:25:58;3.92;;;0.38;;
38940;SDS011;43236;47.208;7.518;2022-09-09T14:28:47;4.85;;;0.68;;
38940;SDS011;43236;47.208;7.518;2022-09-09T14:31:35;3.10;;;0.20;;
38940;SDS011;43236;47.208;7.518;2022-09-09T14:34:22;1.08;;;0.17;;
38940;SDS011;43236;47.208;7.518;2022-09-09T14:37:09;2.55;;;0.80;;
38940;SDS011;43236;47.208;7.518;2022-09-09T14:39:56;5.13;;;0.47;;
38940;SDS011;43236;47.208;7.518;2022-09-09T14:42:43;1.77;;;0.20;;
38940;SDS011;43236;47.208;7.518;2022-09-09T14:45:31;2.85;;;0.57;;
38940;SDS011;43236;47.208;7.518;2022-09-09T14:48:18;5.22;;;0.50;;
38940;SDS011;43236;47.208;7.518;2022-09-09T14:51:06;4.75;;;0.45;;
38940;SDS011;43236;47.208;7.518;2022-09-09T14:53:55;1.73;;;0.30;;
38940;SDS011;43236;47.208;7.518;2022-09-09T14:56:43;2.20;;;0.40;;
38940;SDS011;43236;47.208;7.518;2022-09-09T14:59:30;8.40;;;0.82;;
38940;SDS011;43236;47.208;7.518;2022-09-09T15:02:18;1.77;;;0.30;;
38940;SDS011;43236;47.208;7.518;2022-09-09T15:05:05;1.55;;;0.30;;
38940;SDS011;43236;47.208;7.518;2022-09-09T15:07:53;1.55;;;0.20;;
38940;SDS011;43236;47.208;7.518;2022-09-09T15:10:40;0.82;;;0.32;;
38940;SDS011;43236;47.208;7.518;2022-09-09T15:13:30;1.42;;;0.25;;
38940;SDS011;43236;47.208;7.518;2022-09-09T15:16:18;2.28;;;0.32;;
38940;SDS011;43236;47.208;7.518;2022-09-09T15:19:07;1.85;;;0.40;;
38940;SDS011;43236;47.208;7.518;2022-09-09T15:21:55;2.70;;;0.40;;
38940;SDS011;43236;47.208;7.518;2022-09-09T15:24:42;1.92;;;0.30;;
38940;SDS011;43236;47.208;7.518;2022-09-09T15:27:29;6.18;;;0.77;;
38940;SDS011;43236;47.208;7.518;2022-09-09T15:30:16;1.48;;;0.50;;
38940;SDS011;43236;47.208;7.518;2022-09-09T15:33:07;1.15;;;0.43;;
38940;SDS011;43236;47.208;7.518;2022-09-09T15:35:56;3.30;;;0.50;;
38940;SDS011;43236;47.208;7.518;2022-09-09T15:38:43;2.28;;;0.40;;
38940;SDS011;43236;47.208;7.518;2022-09-09T15:41:30;3.20;;;0.43;;
38940;SDS011;43236;47.208;7.518;2022-09-09T15:44:17;5.68;;;0.70;;
38940;SDS011;43236;47.208;7.518;2022-09-09T15:47:05;3.33;;;0.60;;
38940;SDS011;43236;47.208;7.518;2022-09-09T15:49:52;3.80;;;0.30;;
38940;SDS011;43236;47.208;7.518;2022-09-09T15:52:40;0.98;;;0.28;;
38940;SDS011;43236;47.208;7.518;2022-09-09T15:55:27;2.28;;;0.38;;
38940;SDS011;43236;47.208;7.518;2022-09-09T15:58:15;4.38;;;0.63;;
38940;SDS011;43236;47.208;7.518;2022-09-09T16:01:02;0.98;;;0.20;;
38940;SDS011;43236;47.208;7.518;2022-09-09T16:03:50;1.70;;;0.38;;
38940;SDS011;43236;47.208;7.518;2022-09-09T16:06:37;2.03;;;0.43;;
38940;SDS011;43236;47.208;7.518;2022-09-09T16:09:26;4.03;;;0.63;;
38940;SDS011;43236;47.208;7.518;2022-09-09T16:12:14;4.47;;;0.50;;
38940;SDS011;43236;47.208;7.518;2022-09-09T16:15:01;1.73;;;0.52;;
38940;SDS011;43236;47.208;7.518;2022-09-09T16:17:49;1.75;;;0.30;;
38940;SDS011;43236;47.208;7.518;2022-09-09T16:20:36;1.92;;;0.55;;
38940;SDS011;43236;47.208;7.518;2022-09-09T16:23:23;1.75;;;0.40;;
38940;SDS011;43236;47.208;7.518;2022-09-09T16:26:12;1.80;;;0.65;;
38940;SDS011;43236;47.208;7.518;2022-09-09T16:29:00;3.22;;;0.60;;
38940;SDS011;43236;47.208;7.518;2022-09-09T16:31:48;1.08;;;0.50;;
38940;SDS011;43236;47.208;7.518;2022-09-09T16:34:35;4.68;;;0.68;;
38940;SDS011;43236;47.208;7.518;2022-09-09T16:37:22;4.10;;;0.35;;
38940;SDS011;43236;47.208;7.518;2022-09-09T16:40:09;2.78;;;0.40;;
38940;SDS011;43236;47.208;7.518;2022-09-09T16:42:58;3.40;;;0.68;;
38940;SDS011;43236;47.208;7.518;2022-09-09T16:45:45;2.53;;;0.32;;
38940;SDS011;43236;47.208;7.518;2022-09-09T16:48:32;2.80;;;0.40;;
38940;SDS011;43236;47.208;7.518;2022-09-09T16:51:20;1.50;;;0.40;;
38940;SDS011;43236;47.208;7.518;2022-09-09T16:54:09;1.85;;;0.40;;
38940;SDS011;43236;47.208;7.518;2022-09-09T16:56:59;3.47;;;0.63;;
38940;SDS011;43236;47.208;7.518;2022-09-09T16:59:47;1.70;;;0.45;;
38940;SDS011;43236;47.208;7.518;2022-09-09T17:02:35;2.92;;;0.50;;
38940;SDS011;43236;47.208;7.518;2022-09-09T17:05:22;3.78;;;0.45;;
38940;SDS011;43236;47.208;7.518;2022-09-09T17:08:10;0.70;;;0.22;;
38940;SDS011;43236;47.208;7.518;2022-09-09T17:10:57;4.07;;;0.40;;
38940;SDS011;43236;47.208;7.518;2022-09-09T17:13:45;3.05;;;0.47;;
38940;SDS011;43236;47.208;7.518;2022-09-09T17:16:34;3.58;;;0.55;;
38940;SDS011;43236;47.208;7.518;2022-09-09T17:19:22;1.67;;;0.40;;